Huvudsida
METAR-TAF:

METAR-TAF

Flygplatser :

Sandane flygplats. Anda

Sandane, Norge

latitud: 61-50N, longitud: 006-07E, höjd: 6 m

Aktuellt väderrapport

Denna rapport gjordes för 16 minuter sedan, klockan 06:20 UTC
Vind 2 kt varierande vindriktning
Temperatur 8°C
Fuktighet 93%
Tryck 1009 hPa
Sikt 10 km eller mer
Få moln på en höjd av 600 ft
Spridda moln på en höjd av 2400 ft
Brutna moln på en höjd av 3200 ft
lätt duggregn

METAR: ENSD 210620Z VRB02KT 9999 -DZ FEW006 SCT024 BKN032 08/07 Q1009 RMK WIND 1138FT VRB01KT

Tid: 08:36 (06:36 UTC)


TAF: saknas

Aktuella väderrapporter och prognoser från 4000 flygplatser (METAR- och TAF-rapporter).

De tillgängliga stationerna syns som gula och röda prickar på kartan.

För musen över prickarna för att se namnen på stationerna.

Klicka sedan för att få väderrapporter och prognoser.

För att ändra kartan: Klicka på de gröna knapparna med ett svart kors på för att zooma in; den gröna knappen med ett streck på för att zooma ut; eller på de gröna pilarna för angränsande kartor.


METAR-TAF: